Time;durP1;ratioP1;P1;durP2;ratioP2;P2;SDS_P1;SDS_P2;PMS_P1;PMS_P2;Temp;Humidity;BMP_temperature;BMP_pressure;BME280_temperature;BME280_humidity;BME280_pressure;Samples;Min_cycle;Max_cycle;Signal;HPM_P1;HPM_P2
2022/12/04 00:38:51;;;;;;;;;;;;;;;;;;2201301;59;1733;-71
2022/12/04 00:41:25;;;;;;;;;;;;;;;;;;2201991;59;2065;-71
2022/12/04 01:50:49;;;;;;;;;;;;;;;;;;673266;61;1677;-71
2022/12/04 02:20:24;;;;;;;;;;;;;;;;;;673455;57;2208;-71
2022/12/04 02:23:18;;;;;;;;;;;;;;;;;;2208855;67;1182;-71
2022/12/04 02:25:55;;;;;;;;;;;;;;;;;;2206067;67;1780;-71
2022/12/04 02:28:36;;;;;;;;;;;;;;;;;;2206611;67;1161;-71
2022/12/04 02:31:12;;;;;;;;;;;;;;;;;;2202815;67;1027;-71
2022/12/04 02:34:06;;;;;;;;;;;;;;;;;;2235304;53;1661;-71
2022/12/04 02:36:44;;;;;;;;;;;;;;;;;;2207038;59;1186;-71
2022/12/04 02:39:21;;;;;;;;;;;;;;;;;;2206927;67;1093;-71
2022/12/04 02:41:57;;;;;;;;;;;;;;;;;;2203269;67;1991;-71
2022/12/04 03:35:09;;;;;;;;;;;;;;;;;;2201174;59;1309;-71
2022/12/04 03:37:44;;;;;;;;;;;;;;;;;;2202861;67;1049;-72
2022/12/04 03:40:21;;;;;;;;;;;;;;;;;;2202937;59;1943;-72
2022/12/04 11:22:17;;;;;;;;;;;;;;;;;;2376755;53;1871;-73
2022/12/04 11:28:17;;;;;;;;;;;;;;;;;;2198512;59;2514;-73
2022/12/04 11:30:53;;;;;;;;;;;;;;;;;;2202535;54;1794;-74
2022/12/04 11:33:30;;;;;;;;;;;;;;;;;;2202304;59;1840;-73
2022/12/04 11:36:04;;;;;;;;;;;;;;;;;;2202837;59;1138;-73
2022/12/04 11:38:40;;;;;;;;;;;;;;;;;;2202726;67;1451;-73
2022/12/04 14:50:43;;;;;;;;;;;;;;;;;;2365161;53;1882;-72
2022/12/04 14:53:23;;;;;;;;;;;;;;;;;;2204574;59;1246;-72
2022/12/04 14:56:02;;;;;;;;;;;;;;;;;;2205383;67;1233;-72
2022/12/04 14:58:36;;;;;;;;;;;;;;;;;;2205616;67;1077;-72
2022/12/04 15:01:20;;;;;;;;;;;;;;;;;;2203321;59;2377;-73
2022/12/04 15:03:55;;;;;;;;;;;;;;;;;;2202372;59;1242;-72
2022/12/04 15:17:14;;;;;;;;;;;;;;;;;;2207575;59;1843;-72
2022/12/04 15:19:47;;;;;;;;;;;;;;;;;;2203203;67;1148;-72
2022/12/04 15:22:23;;;;;;;;;;;;;;;;;;2204241;59;2073;-73
2022/12/04 15:24:56;;;;;;;;;;;;;;;;;;2204282;67;1226;-73
2022/12/04 15:27:30;;;;;;;;;;;;;;;;;;2201207;59;1591;-72
2022/12/04 15:30:04;;;;;;;;;;;;;;;;;;2200440;59;2667;-72
2022/12/04 15:32:40;;;;;;;;;;;;;;;;;;2200155;59;2565;-73
2022/12/04 15:35:17;;;;;;;;;;;;;;;;;;2200780;59;1315;-73
2022/12/04 15:37:51;;;;;;;;;;;;;;;;;;2202164;59;1385;-73
2022/12/04 15:40:25;;;;;;;;;;;;;;;;;;2201755;67;1161;-73
2022/12/04 15:43:08;;;;;;;;;;;;;;;;;;2201254;59;1961;-73
2022/12/04 15:45:41;;;;;;;;;;;;;;;;;;2199831;59;1760;-73
2022/12/04 15:48:26;;;;;;;;;;;;;;;;;;2201177;59;1563;-73
2022/12/04 15:51:01;;;;;;;;;;;;;;;;;;2199021;67;1031;-72
2022/12/04 15:53:36;;;;;;;;;;;;;;;;;;2201335;59;1811;-73
2022/12/04 15:56:10;;;;;;;;;;;;;;;;;;2201085;59;1546;-73
2022/12/04 15:58:50;;;;;;;;;;;;;;;;;;2200947;59;1956;-73
2022/12/04 16:01:23;;;;;;;;;;;;;;;;;;2201391;59;1937;-73
2022/12/04 16:03:59;;;;;;;;;;;;;;;;;;2201646;59;1677;-73
2022/12/04 16:06:33;;;;;;;;;;;;;;;;;;2202456;59;1224;-73
2022/12/04 16:09:14;;;;;;;;;;;;;;;;;;2202378;59;1117;-73
2022/12/04 16:11:47;;;;;;;;;;;;;;;;;;2202237;67;1232;-72
2022/12/04 16:14:20;;;;;;;;;;;;;;;;;;2201783;59;1734;-72
2022/12/04 16:16:54;;;;;;;;;;;;;;;;;;2202482;59;1183;-73
2022/12/04 16:19:33;;;;;;;;;;;;;;;;;;2202201;59;1143;-73
2022/12/04 16:22:11;;;;;;;;;;;;;;;;;;2202653;59;1954;-73
2022/12/04 16:24:44;;;;;;;;;;;;;;;;;;2202431;67;1150;-73
2022/12/04 16:27:18;;;;;;;;;;;;;;;;;;2202405;67;1144;-73
2022/12/04 16:29:52;;;;;;;;;;;;;;;;;;2202561;59;1211;-73
2022/12/04 16:32:29;;;;;;;;;;;;;;;;;;2201090;59;2205;-73
2022/12/04 16:35:05;;;;;;;;;;;;;;;;;;2201722;59;2585;-73
2022/12/04 16:37:38;;;;;;;;;;;;;;;;;;2202698;59;1243;-73
2022/12/04 16:40:12;;;;;;;;;;;;;;;;;;2202595;67;1184;-73
2022/12/04 16:42:45;;;;;;;;;;;;;;;;;;2202539;59;1935;-73
2022/12/04 16:45:22;;;;;;;;;;;;;;;;;;2202094;67;1215;-73
2022/12/04 16:47:56;;;;;;;;;;;;;;;;;;2202853;59;1385;-73
2022/12/04 16:50:32;;;;;;;;;;;;;;;;;;2202947;67;1116;-73
2022/12/04 16:53:05;;;;;;;;;;;;;;;;;;2202492;67;1042;-73
2022/12/04 16:55:40;;;;;;;;;;;;;;;;;;2202832;67;1238;-73
2022/12/04 16:58:13;;;;;;;;;;;;;;;;;;2201144;59;1654;-73
2022/12/04 17:00:47;;;;;;;;;;;;;;;;;;2201437;59;1983;-73
2022/12/04 17:03:23;;;;;;;;;;;;;;;;;;2200523;59;2258;-73
2022/12/04 17:05:59;;;;;;;;;;;;;;;;;;2201508;59;1725;-73
2022/12/04 17:08:32;;;;;;;;;;;;;;;;;;2198573;59;1543;-73
2022/12/04 17:11:05;;;;;;;;;;;;;;;;;;2200580;59;1640;-73
2022/12/04 17:13:39;;;;;;;;;;;;;;;;;;2202545;67;998;-73
2022/12/04 17:16:12;;;;;;;;;;;;;;;;;;2201076;59;1325;-73
2022/12/04 17:18:45;;;;;;;;;;;;;;;;;;2201486;59;1752;-73
2022/12/04 17:21:21;;;;;;;;;;;;;;;;;;2200636;59;2289;-73
2022/12/04 17:23:54;;;;;;;;;;;;;;;;;;2200765;59;2302;-73
2022/12/04 17:26:28;;;;;;;;;;;;;;;;;;2200961;59;1198;-73
2022/12/04 17:29:01;;;;;;;;;;;;;;;;;;2197707;67;912;-73
2022/12/04 17:31:34;;;;;;;;;;;;;;;;;;2201102;59;2738;-73
2022/12/04 17:34:07;;;;;;;;;;;;;;;;;;2198526;59;2386;-73
2022/12/04 17:36:43;;;;;;;;;;;;;;;;;;2200934;59;1230;-73
2022/12/04 17:39:16;;;;;;;;;;;;;;;;;;2197334;59;1495;-73
2022/12/04 17:41:49;;;;;;;;;;;;;;;;;;2201200;59;2001;-74
2022/12/04 17:44:22;;;;;;;;;;;;;;;;;;2200982;67;1110;-73
2022/12/04 17:46:55;;;;;;;;;;;;;;;;;;2201113;59;1301;-73
2022/12/04 17:49:29;;;;;;;;;;;;;;;;;;2200912;67;1179;-73
2022/12/04 17:52:05;;;;;;;;;;;;;;;;;;2201457;67;1041;-73
2022/12/04 17:54:39;;;;;;;;;;;;;;;;;;2201002;59;1942;-73
2022/12/04 17:57:12;;;;;;;;;;;;;;;;;;2200215;59;1873;-73
2022/12/04 17:59:45;;;;;;;;;;;;;;;;;;2201780;59;1626;-73
2022/12/04 18:02:18;;;;;;;;;;;;;;;;;;2199577;59;1935;-73
2022/12/04 18:04:51;;;;;;;;;;;;;;;;;;2201437;59;1586;-73
2022/12/04 18:07:27;;;;;;;;;;;;;;;;;;2201686;59;1479;-73
2022/12/04 18:10:00;;;;;;;;;;;;;;;;;;2201180;59;1168;-73
2022/12/04 18:12:33;;;;;;;;;;;;;;;;;;2200935;59;1670;-73
2022/12/04 18:15:07;;;;;;;;;;;;;;;;;;2200129;59;1893;-73
2022/12/04 18:17:40;;;;;;;;;;;;;;;;;;2201560;59;2110;-73
2022/12/04 18:20:14;;;;;;;;;;;;;;;;;;2200214;59;2267;-73
2022/12/04 18:22:50;;;;;;;;;;;;;;;;;;2201263;59;1935;-73
2022/12/04 18:25:23;;;;;;;;;;;;;;;;;;2202413;59;1920;-73
2022/12/04 18:27:56;;;;;;;;;;;;;;;;;;2200808;59;2925;-73
2022/12/04 18:30:29;;;;;;;;;;;;;;;;;;2202595;59;2384;-73
2022/12/04 18:33:02;;;;;;;;;;;;;;;;;;2201873;59;2660;-73
2022/12/04 18:35:35;;;;;;;;;;;;;;;;;;2197596;59;2353;-74
2022/12/04 18:38:12;;;;;;;;;;;;;;;;;;2201811;59;2482;-73
2022/12/04 18:40:45;;;;;;;;;;;;;;;;;;2202897;67;1143;-73
2022/12/04 18:43:18;;;;;;;;;;;;;;;;;;2203084;59;1923;-73
2022/12/04 18:45:58;;;;;;;;;;;;;;;;;;2202774;59;2254;-73
2022/12/04 18:48:32;;;;;;;;;;;;;;;;;;2202642;59;1264;-73
2022/12/04 18:51:14;;;;;;;;;;;;;;;;;;2202017;59;1780;-73
2022/12/04 18:53:51;;;;;;;;;;;;;;;;;;2203107;59;1590;-73
2022/12/04 18:56:24;;;;;;;;;;;;;;;;;;2202534;67;1187;-73
2022/12/04 18:59:01;;;;;;;;;;;;;;;;;;2197024;59;1759;-73
2022/12/04 19:01:34;;;;;;;;;;;;;;;;;;2194833;59;15274;-73
2022/12/04 19:04:08;;;;;;;;;;;;;;;;;;2196350;59;27259;-73
2022/12/04 19:06:42;;;;;;;;;;;;;;;;;;2197272;59;12346;-73
2022/12/04 19:09:19;;;;;;;;;;;;;;;;;;2197248;59;12820;-73
2022/12/04 19:11:52;;;;;;;;;;;;;;;;;;2197505;59;12380;-73
2022/12/04 19:14:25;;;;;;;;;;;;;;;;;;2198346;67;27128;-73
2022/12/04 19:16:59;;;;;;;;;;;;;;;;;;2197331;59;22561;-73
2022/12/04 19:19:32;;;;;;;;;;;;;;;;;;2195636;59;12103;-73
2022/12/04 19:22:05;;;;;;;;;;;;;;;;;;2192325;59;11441;-73
2022/12/04 19:24:42;;;;;;;;;;;;;;;;;;2196237;59;12027;-73
2022/12/04 19:27:15;;;;;;;;;;;;;;;;;;2196229;59;13221;-73
2022/12/04 19:29:48;;;;;;;;;;;;;;;;;;2197272;59;18156;-73
2022/12/04 19:32:22;;;;;;;;;;;;;;;;;;2195232;67;19234;-72
2022/12/04 19:34:55;;;;;;;;;;;;;;;;;;2196308;59;12620;-73
2022/12/04 19:37:28;;;;;;;;;;;;;;;;;;2195971;59;13524;-73
2022/12/04 19:40:04;;;;;;;;;;;;;;;;;;2195895;59;12168;-73
2022/12/04 19:42:37;;;;;;;;;;;;;;;;;;2198826;59;1992;-73
2022/12/04 19:45:11;;;;;;;;;;;;;;;;;;2197087;67;1219;-73
2022/12/04 19:47:44;;;;;;;;;;;;;;;;;;2198754;67;1120;-73
2022/12/04 19:50:17;;;;;;;;;;;;;;;;;;2197246;59;1619;-73
2022/12/04 19:52:51;;;;;;;;;;;;;;;;;;2199323;59;1193;-73
2022/12/04 19:55:27;;;;;;;;;;;;;;;;;;2194967;67;1214;-73
2022/12/04 19:58:01;;;;;;;;;;;;;;;;;;2199315;67;1037;-73
2022/12/04 20:00:34;;;;;;;;;;;;;;;;;;2199860;67;1111;-73
2022/12/04 20:03:07;;;;;;;;;;;;;;;;;;2197714;59;1932;-73
2022/12/04 20:05:40;;;;;;;;;;;;;;;;;;2199570;67;1189;-73
2022/12/04 20:08:13;;;;;;;;;;;;;;;;;;2198319;59;1546;-73
2022/12/04 20:10:49;;;;;;;;;;;;;;;;;;2199368;59;1612;-73
2022/12/04 20:13:22;;;;;;;;;;;;;;;;;;2199340;59;1043;-73
2022/12/04 20:15:55;;;;;;;;;;;;;;;;;;2198050;59;1293;-73
2022/12/04 20:18:29;;;;;;;;;;;;;;;;;;2195001;67;1273;-73
2022/12/04 20:21:03;;;;;;;;;;;;;;;;;;2198656;59;1284;-73
2022/12/04 20:23:36;;;;;;;;;;;;;;;;;;2198689;67;1925;-73
2022/12/04 20:26:13;;;;;;;;;;;;;;;;;;2198634;67;1168;-74
2022/12/04 20:28:46;;;;;;;;;;;;;;;;;;2199253;59;1413;-74
2022/12/04 20:31:21;;;;;;;;;;;;;;;;;;2198665;67;1031;-73
2022/12/04 20:33:55;;;;;;;;;;;;;;;;;;2199483;67;1185;-74
2022/12/04 20:36:30;;;;;;;;;;;;;;;;;;2198431;59;2087;-73
2022/12/04 20:39:03;;;;;;;;;;;;;;;;;;2199335;59;1010;-73
2022/12/04 20:41:39;;;;;;;;;;;;;;;;;;2199301;67;1268;-73
2022/12/04 20:44:14;;;;;;;;;;;;;;;;;;2198749;67;1944;-74
2022/12/04 20:46:48;;;;;;;;;;;;;;;;;;2199580;59;1294;-73
2022/12/04 20:49:21;;;;;;;;;;;;;;;;;;2199273;59;1063;-73
2022/12/04 20:51:54;;;;;;;;;;;;;;;;;;2199978;60;1073;-73
2022/12/04 20:54:27;;;;;;;;;;;;;;;;;;2199617;59;1204;-73
2022/12/04 20:57:03;;;;;;;;;;;;;;;;;;2199741;67;1203;-73
2022/12/04 20:59:37;;;;;;;;;;;;;;;;;;2200489;67;1073;-73
2022/12/04 21:02:11;;;;;;;;;;;;;;;;;;2200362;67;1093;-73
2022/12/04 21:04:44;;;;;;;;;;;;;;;;;;2200014;59;2390;-74
2022/12/04 21:07:18;;;;;;;;;;;;;;;;;;2199741;59;1771;-73
2022/12/04 21:09:51;;;;;;;;;;;;;;;;;;2200289;67;1144;-73
